Time;durP1;ratioP1;P1;durP2;ratioP2;P2;SDS_P1;SDS_P2;PMS_P1;PMS_P2;Temp;Humidity;BMP_temperature;BMP_pressure;BME280_temperature;BME280_humidity;BME280_pressure;Samples;Min_cycle;Max_cycle;Signal;HPM_P1;HPM_P2
2023/10/16 00:00:43;;;;;;;;;;;;;;;20.09;56.60;96781.63;602323;235;66515;-66
2023/10/16 00:03:17;;;;;;;;;;;;;;;20.10;57.04;96794.69;602312;235;63602;-67
2023/10/16 00:05:45;;;;;;;;;;;;;;;20.09;56.33;96798.44;602085;235;64366;-67
2023/10/16 00:08:10;;;;;;;;;;;;;;;20.09;57.08;96784.30;602300;235;63855;-67
2023/10/16 00:10:38;;;;;;;;;;;;;;;20.09;56.60;96789.64;602386;235;62433;-66
2023/10/16 00:13:10;;;;;;;;;;;;;;;20.08;56.68;96786.17;602455;233;66343;-66
2023/10/16 00:15:49;;;;;;;;;;;;;;;20.08;55.78;96786.17;601945;235;64296;-66
2023/10/16 00:18:10;;;;;;;;;;;;;;;20.08;56.06;96791.51;602221;233;62742;-66
2023/10/16 00:20:36;;;;;;;;;;;;;;;20.09;55.52;96792.30;602035;235;64364;-68
2023/10/16 00:23:08;;;;;;;;;;;;;;;20.09;56.31;96792.30;602399;235;66382;-67
2023/10/16 00:25:33;;;;;;;;;;;;;;;20.09;56.62;96786.97;602253;235;64824;-67
2023/10/16 00:28:01;;;;;;;;;;;;;;;20.08;56.18;96796.02;602415;234;66678;-67
2023/10/16 00:30:31;;;;;;;;;;;;;;;20.08;55.91;96796.02;602223;235;63792;-67
2023/10/16 00:32:58;;;;;;;;;;;;;;;20.08;56.19;96799.52;602374;234;65502;-67
2023/10/16 00:35:26;;;;;;;;;;;;;;;20.07;56.21;96792.56;602596;235;66984;-68
2023/10/16 00:37:55;;;;;;;;;;;;;;;20.08;56.42;96791.51;602357;234;66149;-67
2023/10/16 00:40:31;;;;;;;;;;;;;;;20.07;55.65;96795.23;602428;235;64737;-67
2023/10/16 00:43:12;;;;;;;;;;;;;;;20.08;56.66;96796.02;601784;235;67299;-67
2023/10/16 00:45:45;;;;;;;;;;;;;;;20.07;55.88;96789.09;602399;234;66255;-67
2023/10/16 00:48:10;;;;;;;;;;;;;;;20.07;56.21;96792.56;602242;234;64590;-67
2023/10/16 00:50:38;;;;;;;;;;;;;;;20.06;56.16;96804.31;602396;234;66386;-67
2023/10/16 00:53:07;;;;;;;;;;;;;;;20.07;55.60;96810.44;602379;234;63956;-66
2023/10/16 00:55:35;;;;;;;;;;;;;;;20.07;56.35;96811.23;602330;235;64773;-66
2023/10/16 00:58:06;;;;;;;;;;;;;;;20.06;56.12;96820.31;602478;235;64497;-67
2023/10/16 01:00:35;;;;;;;;;;;;;;;20.06;55.61;96804.31;602238;235;64297;-66
2023/10/16 01:03:04;;;;;;;;;;;;;;;20.06;55.55;96820.31;602385;234;64905;-66
2023/10/16 01:05:39;;;;;;;;;;;;;;;20.07;55.49;96827.23;602271;234;67243;-66
2023/10/16 01:08:04;;;;;;;;;;;;;;;20.06;55.91;96830.19;602259;235;67214;-66
2023/10/16 01:10:32;;;;;;;;;;;;;;;20.07;56.06;96831.78;602481;234;62675;-66
2023/10/16 01:13:01;;;;;;;;;;;;;;;20.06;55.51;96840.86;602460;235;66627;-66
2023/10/16 01:15:29;;;;;;;;;;;;;;;20.07;56.35;96850.45;602517;233;66313;-66
2023/10/16 01:17:56;;;;;;;;;;;;;;;20.06;55.64;96849.66;602071;235;62356;-66
2023/10/16 01:20:25;;;;;;;;;;;;;;;20.05;56.12;96840.07;602277;234;67308;-66
2023/10/16 01:22:52;;;;;;;;;;;;;;;20.05;55.26;96837.41;602465;235;66938;-66
2023/10/16 01:25:20;;;;;;;;;;;;;;;20.05;55.04;96845.41;602511;235;62354;-66
2023/10/16 01:27:47;;;;;;;;;;;;;;;20.05;55.60;96861.41;602151;235;65297;-65
2023/10/16 01:30:17;;;;;;;;;;;;;;;20.06;55.87;96871.00;601642;235;66820;-66
2023/10/16 01:32:44;;;;;;;;;;;;;;;20.06;55.84;96867.54;602031;234;62280;-66
2023/10/16 01:35:13;;;;;;;;;;;;;;;20.06;55.87;96873.67;602502;235;66677;-66
2023/10/16 01:37:41;;;;;;;;;;;;;;;20.05;55.77;96882.75;602527;233;64107;-66
2023/10/16 01:40:28;;;;;;;;;;;;;;;20.05;55.18;96890.75;602547;235;62178;-66
2023/10/16 01:42:42;;;;;;;;;;;;;;;20.06;55.59;96899.55;600986;235;64164;-66
2023/10/16 01:45:12;;;;;;;;;;;;;;;20.05;55.36;96916.61;602517;233;66796;-66
2023/10/16 01:47:39;;;;;;;;;;;;;;;20.05;55.87;96911.27;601998;235;64588;-66
2023/10/16 01:50:13;;;;;;;;;;;;;;;20.05;55.67;96935.28;597701;234;67388;-67
2023/10/16 01:52:36;;;;;;;;;;;;;;;20.04;55.31;96923.02;594820;236;67646;-67
2023/10/16 01:55:09;;;;;;;;;;;;;;;20.04;55.23;96918.48;594925;238;64770;-67
2023/10/16 01:57:35;;;;;;;;;;;;;;;20.04;55.52;96929.15;594895;236;67793;-68
2023/10/16 02:00:06;;;;;;;;;;;;;;;20.04;55.08;96942.48;594920;238;64721;-67
2023/10/16 02:02:39;;;;;;;;;;;;;;;20.03;55.11;96948.90;594759;238;42162;-67
2023/10/16 02:05:06;;;;;;;;;;;;;;;20.04;55.12;96949.70;594837;238;67004;-67
2023/10/16 02:07:34;;;;;;;;;;;;;;;20.03;54.76;96943.56;594933;238;67689;-67
2023/10/16 02:10:01;;;;;;;;;;;;;;;20.03;54.55;96959.57;594867;238;62383;-67
2023/10/16 02:12:29;;;;;;;;;;;;;;;20.03;54.80;96953.44;594888;238;67822;-66
2023/10/16 02:14:56;;;;;;;;;;;;;;;20.02;54.48;96947.28;594914;237;66843;-66
2023/10/16 02:17:24;;;;;;;;;;;;;;;20.02;54.42;96949.95;594901;238;62451;-66
2023/10/16 02:19:52;;;;;;;;;;;;;;;20.02;54.72;96965.16;594892;238;66899;-66
2023/10/16 02:22:22;;;;;;;;;;;;;;;20.02;54.60;96960.62;594968;237;65366;-66
2023/10/16 02:24:49;;;;;;;;;;;;;;;20.02;54.40;96967.83;594907;238;63358;-66
2023/10/16 02:27:18;;;;;;;;;;;;;;;20.02;54.38;96968.63;594952;238;67938;-66
2023/10/16 02:30:00;;;;;;;;;;;;;;;20.02;54.22;96975.83;594826;237;64548;-67
2023/10/16 02:32:26;;;;;;;;;;;;;;;20.01;53.67;96999.04;594633;238;63586;-67
2023/10/16 02:34:51;;;;;;;;;;;;;;;20.01;54.03;96985.70;598389;232;66771;-67
2023/10/16 02:37:20;;;;;;;;;;;;;;;20.01;54.17;96993.70;594858;238;65466;-67
2023/10/16 02:39:53;;;;;;;;;;;;;;;20.01;54.14;96983.03;594920;236;65505;-67
2023/10/16 02:42:20;;;;;;;;;;;;;;;20.01;53.60;96987.58;594876;238;67798;-67
2023/10/16 02:44:49;;;;;;;;;;;;;;;20.00;53.26;96986.78;594849;237;66962;-67
2023/10/16 02:47:25;;;;;;;;;;;;;;;20.00;53.57;97000.12;594958;237;62717;-67
2023/10/16 02:49:49;;;;;;;;;;;;;;;20.00;52.91;97008.13;594446;232;67459;-67
2023/10/16 02:52:17;;;;;;;;;;;;;;;20.00;53.36;97008.13;594955;237;66703;-68
2023/10/16 02:54:47;;;;;;;;;;;;;;;20.00;53.26;97007.30;594960;238;62538;-68
2023/10/16 02:57:15;;;;;;;;;;;;;;;20.00;53.71;97008.13;594721;238;66941;-68
2023/10/16 02:59:43;;;;;;;;;;;;;;;20.00;53.71;97009.96;594981;238;66681;-68
2023/10/16 03:02:27;;;;;;;;;;;;;;;19.99;53.44;97017.17;595024;236;66725;-68
2023/10/16 03:04:54;;;;;;;;;;;;;;;19.99;53.23;97019.84;594584;238;64213;-67
2023/10/16 03:07:21;;;;;;;;;;;;;;;19.99;52.51;97016.38;594950;238;63739;-67
2023/10/16 03:09:52;;;;;;;;;;;;;;;19.99;53.16;97022.50;594865;238;64922;-67
2023/10/16 03:12:20;;;;;;;;;;;;;;;19.98;51.80;97023.58;594860;238;64671;-68
2023/10/16 03:15:01;;;;;;;;;;;;;;;19.99;53.16;97027.05;594932;237;66729;-68
2023/10/16 03:20:07;;;;;;;;;;;;;;;19.98;52.70;97030.78;594908;238;66924;-67
2023/10/16 03:22:30;;;;;;;;;;;;;;;19.97;52.44;97040.66;594513;238;66988;-67
2023/10/16 03:24:59;;;;;;;;;;;;;;;19.98;52.62;97054.80;594872;238;64574;-67
2023/10/16 03:27:28;;;;;;;;;;;;;;;19.98;52.60;97049.45;594939;238;66960;-67
2023/10/16 03:29:59;;;;;;;;;;;;;;;19.96;52.20;97047.84;594971;238;66824;-67
2023/10/16 03:32:28;;;;;;;;;;;;;;;19.96;51.91;97045.17;594898;238;65245;-67
2023/10/16 03:35:05;;;;;;;;;;;;;;;19.96;52.13;97028.37;594883;238;64486;-67
2023/10/16 03:37:26;;;;;;;;;;;;;;;19.97;50.70;97045.99;594520;238;64642;-67
2023/10/16 03:40:04;;;;;;;;;;;;;;;19.97;51.24;97054.00;594964;237;64616;-67
2023/10/16 03:42:23;;;;;;;;;;;;;;;19.98;52.24;97057.46;594501;238;67000;-67
2023/10/16 03:44:51;;;;;;;;;;;;;;;19.95;51.77;97053.45;594810;238;64485;-67
2023/10/16 03:47:19;;;;;;;;;;;;;;;19.96;51.10;97049.70;594910;238;62443;-67
2023/10/16 03:49:47;;;;;;;;;;;;;;;19.96;51.12;97061.17;598138;235;66632;-67
2023/10/16 03:52:14;;;;;;;;;;;;;;;19.96;51.37;97053.17;602668;234;66348;-67
2023/10/16 03:54:42;;;;;;;;;;;;;;;19.96;51.21;97058.50;602499;235;64524;-67
2023/10/16 03:57:13;;;;;;;;;;;;;;;19.95;50.58;97048.12;602301;234;66747;-67
2023/10/16 03:59:42;;;;;;;;;;;;;;;19.96;51.13;97065.71;602140;234;64954;-67
2023/10/16 04:02:17;;;;;;;;;;;;;;;19.95;50.80;97058.78;602290;234;64544;-67
2023/10/16 04:04:39;;;;;;;;;;;;;;;19.95;51.83;97056.12;602043;235;66976;-67
2023/10/16 04:07:10;;;;;;;;;;;;;;;19.94;51.04;97060.66;602544;233;66792;-67
2023/10/16 04:09:40;;;;;;;;;;;;;;;19.95;51.52;97058.78;602301;235;64710;-67
2023/10/16 04:12:06;;;;;;;;;;;;;;;19.94;50.29;97057.16;602112;235;66902;-68
2023/10/16 04:14:50;;;;;;;;;;;;;;;19.94;50.75;97063.33;601875;234;64559;-68
2023/10/16 04:17:15;;;;;;;;;;;;;;;19.93;49.44;97082.24;602120;235;62706;-66
2023/10/16 04:20:42;;;;;;;;;;;;;;;19.94;51.08;97084.66;602455;235;66689;-66
2023/10/16 04:22:16;;;;;;;;;;;;;;;19.94;50.26;97078.50;600729;235;66682;-67
2023/10/16 04:24:44;;;;;;;;;;;;;;;19.93;50.48;97083.04;602014;235;64840;-67
2023/10/16 04:32:27;;;;;;;;;;;;;;;19.94;50.07;97099.84;589660;235;62442;-65
2023/10/16 04:34:54;;;;;;;;;;;;;;;19.93;50.54;97098.25;601935;235;65174;-65
2023/10/16 04:48:06;;;;;;;;;;;;;;;19.92;50.06;97112.66;602340;235;62540;-65
2023/10/16 04:50:27;;;;;;;;;;;;;;;19.91;48.46;97117.16;597852;233;66546;-66
2023/10/16 06:14:37;;;;;;;;;;;;;;;19.84;49.38;97291.84;602306;234;66951;-68
2023/10/16 06:17:15;;;;;;;;;;;;;;;19.84;49.04;97302.52;602495;235;64867;-66
2023/10/16 06:19:43;;;;;;;;;;;;;;;19.84;47.65;97307.84;602184;235;67087;-67
2023/10/16 06:22:11;;;;;;;;;;;;;;;19.85;47.49;97309.45;602201;235;64715;-66
2023/10/16 06:24:44;;;;;;;;;;;;;;;19.84;48.20;97321.18;602096;234;64915;-69
2023/10/16 06:27:11;;;;;;;;;;;;;;;19.84;48.02;97326.52;602250;234;66765;-66
2023/10/16 06:29:51;;;;;;;;;;;;;;;19.83;47.40;97328.35;602419;233;65115;-66
2023/10/16 06:32:20;;;;;;;;;;;;;;;19.84;48.65;97324.65;601661;235;64775;-67
2023/10/16 06:34:57;;;;;;;;;;;;;;;19.85;48.99;97349.45;605698;233;64527;-67
2023/10/16 06:37:21;;;;;;;;;;;;;;;19.84;49.06;97343.31;606970;233;66915;-67
2023/10/16 06:39:49;;;;;;;;;;;;;;;19.85;49.63;97346.78;606792;234;62701;-67
2023/10/16 06:42:20;;;;;;;;;;;;;;;19.86;49.50;97345.71;606607;231;66904;-65
2023/10/16 06:44:53;;;;;;;;;;;;;;;19.87;49.06;97350.01;606916;234;67245;-67
2023/10/16 06:47:24;;;;;;;;;;;;;;;19.89;49.87;97353.23;606851;233;64852;-67
2023/10/16 06:49:51;;;;;;;;;;;;;;;19.87;47.77;97344.67;606813;232;67090;-66
2023/10/16 06:52:18;;;;;;;;;;;;;;;19.87;49.04;97348.14;606882;232;66658;-67
2023/10/16 06:54:46;;;;;;;;;;;;;;;19.89;49.85;97361.23;606868;234;65877;-66
2023/10/16 06:57:14;;;;;;;;;;;;;;;19.89;49.25;97359.36;607013;234;66670;-66
2023/10/16 06:59:45;;;;;;;;;;;;;;;19.90;48.75;97362.83;606854;234;65421;-66
2023/10/16 07:02:15;;;;;;;;;;;;;;;19.90;49.99;97366.30;606921;233;64943;-66
2023/10/16 07:04:44;;;;;;;;;;;;;;;19.91;49.88;97383.89;606948;233;67083;-67
2023/10/16 07:07:15;;;;;;;;;;;;;;;19.91;50.06;97377.77;604698;232;66833;-67
2023/10/16 07:09:47;;;;;;;;;;;;;;;19.95;48.78;97373.54;602876;235;64794;-65
2023/10/16 07:12:12;;;;;;;;;;;;;;;19.98;46.27;97388.23;602831;235;66795;-66
2023/10/16 07:14:40;;;;;;;;;;;;;;;19.96;48.84;97381.27;602764;235;64743;-68
2023/10/16 07:17:07;;;;;;;;;;;;;;;19.96;51.18;97388.48;602878;235;64494;-67
2023/10/16 07:19:35;;;;;;;;;;;;;;;19.95;51.46;97389.55;602932;235;64259;-67
2023/10/16 07:22:10;;;;;;;;;;;;;;;19.94;50.96;97383.41;602813;235;64737;-66
2023/10/16 07:24:34;;;;;;;;;;;;;;;19.96;51.77;97385.81;602946;232;62414;-67
2023/10/16 07:27:12;;;;;;;;;;;;;;;19.95;51.26;97389.55;602824;232;64486;-68
2023/10/16 07:29:32;;;;;;;;;;;;;;;19.96;51.43;97391.14;602796;232;64557;-65
2023/10/16 07:32:01;;;;;;;;;;;;;;;19.97;51.83;97387.44;602829;235;63455;-66
2023/10/16 07:34:31;;;;;;;;;;;;;;;19.97;51.39;97392.77;602822;232;64421;-66
2023/10/16 07:36:58;;;;;;;;;;;;;;;19.98;51.84;97398.91;602820;235;64734;-66
2023/10/16 07:39:28;;;;;;;;;;;;;;;19.97;51.82;97392.77;602847;232;64702;-67
2023/10/16 07:41:55;;;;;;;;;;;;;;;19.99;53.06;97395.16;602896;235;64322;-66
2023/10/16 07:44:26;;;;;;;;;;;;;;;19.98;52.19;97397.03;602840;235;66449;-66
2023/10/16 07:46:52;;;;;;;;;;;;;;;19.98;52.20;97394.37;602798;235;64834;-67
2023/10/16 07:49:25;;;;;;;;;;;;;;;19.99;52.03;97411.97;602816;232;66750;-66
2023/10/16 07:51:52;;;;;;;;;;;;;;;19.99;52.01;97400.50;602867;232;67140;-65
2023/10/16 07:54:17;;;;;;;;;;;;;;;19.99;51.76;97406.64;602810;232;64962;-66
2023/10/16 08:00:13;;;;;;;;;;;;;;;20.01;54.05;97406.39;602860;232;38535;-65
2023/10/16 08:02:44;;;;;;;;;;;;;;;20.00;52.03;97418.11;602815;232;43978;-67
2023/10/16 08:05:15;;;;;;;;;;;;;;;19.99;52.13;97406.64;602775;232;66952;-66
2023/10/16 08:07:49;;;;;;;;;;;;;;;19.99;52.64;97422.64;603027;232;66969;-66
2023/10/16 08:10:59;;;;;;;;;;;;;;;19.99;53.37;97427.98;602880;235;63653;-67
2023/10/16 08:12:49;;;;;;;;;;;;;;;20.00;54.29;97413.60;601595;235;64078;-67
2023/10/16 08:15:21;;;;;;;;;;;;;;;20.00;53.66;97412.77;602774;235;64717;-68
2023/10/16 08:17:46;;;;;;;;;;;;;;;20.00;53.82;97407.44;602725;232;62778;-66
2023/10/16 08:20:28;;;;;;;;;;;;;;;19.99;52.76;97401.30;602763;235;67336;-67
2023/10/16 08:22:47;;;;;;;;;;;;;;;20.01;53.39;97406.39;602954;232;66683;-68
2023/10/16 08:25:34;;;;;;;;;;;;;;;20.00;52.71;97407.44;602695;235;62602;-66
2023/10/16 08:28:20;;;;;;;;;;;;;;;20.01;53.65;97406.39;602814;235;66804;-65
2023/10/16 08:30:33;;;;;;;;;;;;;;;20.01;53.88;97415.20;603329;232;66811;-66
2023/10/16 08:33:07;;;;;;;;;;;;;;;20.01;53.70;97412.53;602708;235;62638;-68
2023/10/16 08:35:38;;;;;;;;;;;;;;;20.01;53.62;97403.73;602766;232;66858;-67
2023/10/16 08:38:11;;;;;;;;;;;;;;;20.00;53.39;97405.59;602812;232;69596;-67
2023/10/16 08:40:35;;;;;;;;;;;;;;;20.01;54.21;97407.20;602782;232;64558;-66
2023/10/16 08:43:09;;;;;;;;;;;;;;;20.02;54.23;97406.12;602781;235;64556;-66
2023/10/16 08:45:49;;;;;;;;;;;;;;;20.02;53.27;97408.00;602777;235;66781;-66
2023/10/16 08:48:18;;;;;;;;;;;;;;;20.01;53.87;97409.86;602736;235;63465;-66
2023/10/16 08:50:52;;;;;;;;;;;;;;;20.02;53.86;97422.13;609164;232;64332;-66
2023/10/16 08:53:32;;;;;;;;;;;;;;;20.01;54.30;97412.53;610542;232;64548;-67
2023/10/16 08:56:07;;;;;;;;;;;;;;;20.01;53.98;97420.53;610602;232;62519;-67
2023/10/16 08:58:35;;;;;;;;;;;;;;;20.01;54.37;97409.86;610446;232;64516;-67
2023/10/16 09:01:07;;;;;;;;;;;;;;;20.01;53.70;97415.20;610572;232;66283;-68
2023/10/16 09:03:34;;;;;;;;;;;;;;;20.01;53.46;97415.20;610553;232;62533;-67
2023/10/16 09:06:04;;;;;;;;;;;;;;;20.02;52.78;97422.13;610572;232;66644;-66
2023/10/16 09:08:33;;;;;;;;;;;;;;;20.02;54.41;97416.80;610567;232;66852;-66
2023/10/16 09:11:06;;;;;;;;;;;;;;;20.02;54.37;97419.47;610586;232;64823;-67
2023/10/16 09:13:36;;;;;;;;;;;;;;;20.02;54.57;97418.66;610542;232;69502;-67
2023/10/16 09:16:07;;;;;;;;;;;;;;;20.01;54.22;97409.86;610569;232;64269;-66
2023/10/16 09:18:35;;;;;;;;;;;;;;;20.01;54.61;97420.53;610513;232;64212;-67
2023/10/16 09:21:13;;;;;;;;;;;;;;;20.02;53.78;97416.00;610598;232;65085;-67
2023/10/16 09:23:36;;;;;;;;;;;;;;;20.02;53.14;97424.00;609916;232;64573;-68
2023/10/16 09:26:01;;;;;;;;;;;;;;;20.01;52.12;97415.20;610439;232;62379;-68
2023/10/16 09:28:32;;;;;;;;;;;;;;;20.01;52.50;97420.53;610580;232;66429;-68
2023/10/16 09:31:01;;;;;;;;;;;;;;;20.01;53.50;97420.53;610089;232;66478;-67
2023/10/16 09:33:26;;;;;;;;;;;;;;;20.01;54.26;97415.20;610433;232;62521;-69
2023/10/16 09:36:00;;;;;;;;;;;;;;;20.01;52.84;97423.20;610551;232;64904;-67
2023/10/16 09:38:32;;;;;;;;;;;;;;;20.02;53.36;97418.66;610390;232;64583;-66
2023/10/16 09:43:56;;;;;;;;;;;;;;;20.01;54.16;97404.53;610522;232;67103;-70
2023/10/16 09:46:52;;;;;;;;;;;;;;;20.00;52.28;97402.93;610162;232;66834;-68
2023/10/16 09:49:05;;;;;;;;;;;;;;;20.01;53.12;97411.73;608693;232;63429;-67
2023/10/16 09:51:39;;;;;;;;;;;;;;;20.01;54.28;97412.53;605350;234;66626;-67
2023/10/16 09:54:03;;;;;;;;;;;;;;;20.01;53.95;97415.20;605280;234;66691;-68
2023/10/16 09:56:32;;;;;;;;;;;;;;;20.02;53.16;97397.33;605336;231;64954;-68
2023/10/16 09:59:00;;;;;;;;;;;;;;;20.01;53.97;97404.53;604961;234;66874;-68
2023/10/16 10:01:31;;;;;;;;;;;;;;;20.02;53.22;97397.33;605371;234;66843;-67
2023/10/16 10:03:59;;;;;;;;;;;;;;;20.03;53.86;97391.74;605361;234;64763;-67
2023/10/16 10:06:34;;;;;;;;;;;;;;;20.03;54.14;97385.61;605286;234;67063;-67
2023/10/16 10:11:44;;;;;;;;;;;;;;;20.03;54.53;97378.41;605266;234;62445;-67
2023/10/16 10:14:20;;;;;;;;;;;;;;;20.03;53.70;97375.73;605169;234;64582;-67
2023/10/16 10:16:45;;;;;;;;;;;;;;;20.04;53.11;97366.66;604890;234;66630;-67
2023/10/16 10:19:24;;;;;;;;;;;;;;;20.05;53.48;97370.13;605168;233;65166;-67
2023/10/16 10:21:53;;;;;;;;;;;;;;;20.05;52.97;97378.13;605251;234;65483;-67
2023/10/16 10:24:21;;;;;;;;;;;;;;;20.04;53.61;97361.33;605315;234;67200;-66
2023/10/16 10:26:48;;;;;;;;;;;;;;;20.05;54.95;97359.45;605195;234;64704;-65
2023/10/16 10:29:22;;;;;;;;;;;;;;;20.05;54.86;97362.95;605317;234;67078;-64
2023/10/16 10:31:46;;;;;;;;;;;;;;;20.06;48.25;97369.09;605226;233;66897;-66
2023/10/16 10:34:23;;;;;;;;;;;;;;;20.08;52.58;97367.77;605232;234;64774;-66
2023/10/16 10:36:51;;;;;;;;;;;;;;;20.10;52.44;97375.50;605312;234;67190;-65
2023/10/16 10:39:25;;;;;;;;;;;;;;;20.11;52.92;97377.93;605388;231;64953;-64
2023/10/16 10:42:03;;;;;;;;;;;;;;;20.11;53.12;97369.13;605254;233;64607;-65
2023/10/16 10:44:33;;;;;;;;;;;;;;;20.12;52.68;97376.06;605095;234;65482;-65
2023/10/16 10:47:05;;;;;;;;;;;;;;;20.12;52.33;97366.19;605266;234;66902;-68
2023/10/16 10:49:33;;;;;;;;;;;;;;;20.13;53.51;97364.31;607083;232;62866;-67
2023/10/16 10:52:02;;;;;;;;;;;;;;;20.14;53.16;97366.74;610592;232;65067;-64
2023/10/16 10:54:30;;;;;;;;;;;;;;;20.14;53.15;97369.41;610413;232;64865;-64
2023/10/16 10:57:07;;;;;;;;;;;;;;;20.15;52.86;97370.21;610523;232;62440;-64
2023/10/16 10:59:40;;;;;;;;;;;;;;;20.14;53.85;97364.08;610178;231;65263;-65
2023/10/16 11:04:53;;;;;;;;;;;;;;;20.11;53.41;97372.59;610542;232;62345;-67
2023/10/16 11:07:39;;;;;;;;;;;;;;;20.11;53.93;97353.12;610321;232;65146;-67
2023/10/16 11:09:54;;;;;;;;;;;;;;;20.10;53.91;97360.30;609679;232;66945;-68
2023/10/16 11:12:24;;;;;;;;;;;;;;;20.10;54.35;97357.63;610587;232;62451;-68
2023/10/16 11:14:51;;;;;;;;;;;;;;;20.14;46.66;97355.27;610465;230;71491;-68
2023/10/16 11:17:34;;;;;;;;;;;;;;;20.18;46.46;97354.48;610522;232;67825;-67
2023/10/16 11:22:44;;;;;;;;;;;;;;;20.14;50.52;97365.95;610500;232;65126;-66
2023/10/16 11:25:15;;;;;;;;;;;;;;;20.14;52.27;97355.27;610560;232;66896;-70
2023/10/16 11:27:43;;;;;;;;;;;;;;;20.12;52.45;97352.84;606187;229;64751;-67
2023/10/16 11:30:18;;;;;;;;;;;;;;;20.12;52.85;97349.37;608221;229;67129;-68
2023/10/16 11:32:46;;;;;;;;;;;;;;;20.10;51.56;97357.63;605445;229;65535;-68
2023/10/16 11:35:18;;;;;;;;;;;;;;;20.09;51.51;97355.23;608072;229;64887;-67
2023/10/16 11:38:13;;;;;;;;;;;;;;;20.08;52.11;97346.43;604453;229;67092;-67
2023/10/16 11:40:39;;;;;;;;;;;;;;;20.09;49.22;97344.56;606902;229;67460;-67
2023/10/16 11:43:18;;;;;;;;;;;;;;;20.09;51.28;97336.55;602352;235;62552;-67
2023/10/16 11:45:56;;;;;;;;;;;;;;;20.09;51.48;97337.35;601746;235;65022;-66
2023/10/16 11:51:18;;;;;;;;;;;;;;;20.08;52.35;97326.92;597007;235;62468;-68
2023/10/16 11:53:25;;;;;;;;;;;;;;;20.08;52.20;97326.92;596193;237;67344;-68
2023/10/16 11:55:53;;;;;;;;;;;;;;;20.08;53.53;97333.09;596295;238;66894;-66
2023/10/16 11:58:22;;;;;;;;;;;;;;;20.09;54.38;97342.69;596263;235;62473;-67
2023/10/16 12:00:53;;;;;;;;;;;;;;;20.09;54.50;97337.35;596199;235;66730;-67
2023/10/16 12:03:26;;;;;;;;;;;;;;;20.09;53.20;97332.02;602093;235;67024;-67
2023/10/16 12:05:55;;;;;;;;;;;;;;;20.10;53.64;97324.81;602754;235;64676;-67
2023/10/16 12:08:22;;;;;;;;;;;;;;;20.09;54.05;97332.02;602910;235;65257;-68
2023/10/16 12:10:50;;;;;;;;;;;;;;;20.10;53.92;97338.95;602831;235;64789;-66
2023/10/16 12:13:18;;;;;;;;;;;;;;;20.13;46.80;97335.80;602841;235;63560;-67
2023/10/16 12:15:46;;;;;;;;;;;;;;;20.14;52.48;97344.59;602821;232;65025;-66
2023/10/16 12:18:14;;;;;;;;;;;;;;;20.12;53.38;97344.84;602852;235;67012;-66
2023/10/16 12:20:42;;;;;;;;;;;;;;;20.12;53.25;97342.17;602771;235;62593;-66
2023/10/16 12:23:09;;;;;;;;;;;;;;;20.13;52.81;97340.30;602906;235;64901;-67
2023/10/16 12:25:37;;;;;;;;;;;;;;;20.12;52.83;97346.71;602875;235;64789;-67
2023/10/16 12:28:09;;;;;;;;;;;;;;;20.12;53.12;97341.37;602810;235;62463;-67
2023/10/16 12:30:36;;;;;;;;;;;;;;;20.12;54.32;97344.05;602719;235;67346;-67
2023/10/16 12:33:09;;;;;;;;;;;;;;;20.07;54.93;97342.13;602515;235;64457;-67
2023/10/16 12:35:38;;;;;;;;;;;;;;;20.12;54.43;97349.37;602563;235;62396;-67
2023/10/16 12:38:07;;;;;;;;;;;;;;;20.11;54.22;97351.25;602650;235;67206;-67
2023/10/16 12:40:37;;;;;;;;;;;;;;;20.11;54.60;97350.45;602628;235;67250;-67
2023/10/16 12:43:06;;;;;;;;;;;;;;;20.10;54.77;97338.95;602561;235;62484;-67
2023/10/16 12:45:33;;;;;;;;;;;;;;;20.10;54.07;97330.95;598912;232;67954;-66
2023/10/16 12:48:01;;;;;;;;;;;;;;;20.11;52.57;97329.11;599925;232;66628;-66
2023/10/16 12:50:29;;;;;;;;;;;;;;;20.11;53.75;97324.56;607778;229;62734;-68
2023/10/16 12:52:58;;;;;;;;;;;;;;;20.11;53.47;97321.90;605227;229;67020;-69
2023/10/16 12:55:26;;;;;;;;;;;;;;;20.11;53.81;97323.77;609874;229;64797;-69
2023/10/16 12:57:54;;;;;;;;;;;;;;;20.11;53.73;97324.56;608726;232;62512;-66
2023/10/16 13:00:23;;;;;;;;;;;;;;;20.12;54.41;97325.37;609135;229;67115;-67
2023/10/16 13:02:52;;;;;;;;;;;;;;;20.11;53.79;97332.57;604831;229;67003;-67
2023/10/16 13:05:24;;;;;;;;;;;;;;;20.11;53.73;97329.91;605133;229;62496;-67
2023/10/16 13:07:50;;;;;;;;;;;;;;;20.11;53.32;97324.56;605986;229;64867;-67
2023/10/16 13:10:26;;;;;;;;;;;;;;;20.11;53.46;97335.23;608244;232;66772;-66
2023/10/16 13:12:48;;;;;;;;;;;;;;;20.11;53.52;97335.23;606458;229;64662;-62
2023/10/16 13:15:24;;;;;;;;;;;;;;;20.11;53.03;97335.23;608690;229;66724;-69
2023/10/16 13:17:48;;;;;;;;;;;;;;;20.11;52.77;97329.91;607145;229;66704;-68
2023/10/16 13:20:18;;;;;;;;;;;;;;;20.10;53.20;97317.61;609148;232;64653;-66
2023/10/16 13:22:49;;;;;;;;;;;;;;;20.12;51.72;97326.16;608941;229;67191;-67
2023/10/16 13:25:17;;;;;;;;;;;;;;;20.15;53.35;97332.85;607734;229;67550;-67
2023/10/16 13:27:45;;;;;;;;;;;;;;;20.16;52.62;97331.78;608422;229;64543;-66
2023/10/16 13:30:12;;;;;;;;;;;;;;;20.16;50.42;97324.60;605004;232;66913;-66
2023/10/16 13:32:46;;;;;;;;;;;;;;;20.20;48.47;97326.75;606943;229;64555;-66
2023/10/16 13:35:12;;;;;;;;;;;;;;;20.21;47.09;97323.02;609603;232;64935;-63
2023/10/16 13:37:45;;;;;;;;;;;;;;;20.23;47.69;97326.23;607123;229;67532;-67
2023/10/16 13:40:32;;;;;;;;;;;;;;;20.23;46.86;97332.37;604197;232;64436;-67
2023/10/16 13:42:40;;;;;;;;;;;;;;;20.23;51.43;97328.91;602622;234;64748;-67
2023/10/16 13:45:12;;;;;;;;;;;;;;;20.21;51.05;97323.02;603586;234;67180;-67
2023/10/16 13:47:39;;;;;;;;;;;;;;;20.20;49.90;97332.09;604130;234;67082;-67
2023/10/16 13:50:09;;;;;;;;;;;;;;;20.20;53.18;97340.09;599625;234;62505;-68
2023/10/16 13:52:36;;;;;;;;;;;;;;;20.19;49.77;97339.30;596060;235;67283;-67
2023/10/16 13:55:12;;;;;;;;;;;;;;;20.18;50.19;97340.34;596125;238;65497;-68
2023/10/16 13:57:34;;;;;;;;;;;;;;;20.18;49.96;97332.33;595946;238;64640;-67
2023/10/16 14:00:02;;;;;;;;;;;;;;;20.16;50.64;97339.78;596134;235;67880;-67
2023/10/16 14:02:36;;;;;;;;;;;;;;;20.16;50.88;97335.28;595935;238;43392;-70
2023/10/16 14:05:00;;;;;;;;;;;;;;;20.14;51.43;97339.26;596126;238;65485;-68
2023/10/16 14:07:30;;;;;;;;;;;;;;;20.13;51.09;97330.45;596151;238;67250;-67
2023/10/16 14:09:57;;;;;;;;;;;;;;;20.13;50.91;97338.46;596218;238;65406;-67
2023/10/16 14:12:25;;;;;;;;;;;;;;;20.13;50.83;97341.13;596269;238;62470;-67
2023/10/16 14:14:53;;;;;;;;;;;;;;;20.13;50.92;97329.62;596178;238;67157;-67
2023/10/16 14:17:20;;;;;;;;;;;;;;;20.13;50.74;97332.30;596183;238;66910;-65
2023/10/16 14:19:48;;;;;;;;;;;;;;;20.12;51.03;97326.16;596232;238;64649;-65
2023/10/16 14:22:20;;;;;;;;;;;;;;;20.13;50.82;97332.30;601382;234;67150;-66
2023/10/16 14:24:48;;;;;;;;;;;;;;;20.13;51.42;97337.63;606427;234;67025;-67
2023/10/16 14:27:25;;;;;;;;;;;;;;;20.14;52.44;97340.06;606391;234;64581;-66
2023/10/16 14:29:48;;;;;;;;;;;;;;;20.14;51.81;97332.05;606119;234;67153;-65
2023/10/16 14:32:16;;;;;;;;;;;;;;;20.15;51.66;97338.19;606302;234;66911;-65
2023/10/16 14:34:44;;;;;;;;;;;;;;;20.21;45.44;97329.14;606346;234;62355;-64
2023/10/16 14:37:13;;;;;;;;;;;;;;;20.25;46.92;97337.46;606371;234;67301;-64
2023/10/16 14:39:41;;;;;;;;;;;;;;;20.27;48.78;97335.31;603756;232;66824;-66
2023/10/16 14:42:11;;;;;;;;;;;;;;;20.29;49.22;97341.20;598288;232;64548;-66
2023/10/16 14:44:40;;;;;;;;;;;;;;;20.31;48.40;97339.89;599507;232;67169;-63
2023/10/16 14:47:09;;;;;;;;;;;;;;;20.33;48.61;97334.30;601271;232;63748;-63
2023/10/16 14:49:36;;;;;;;;;;;;;;;20.34;48.33;97333.23;603177;229;64859;-65
2023/10/16 14:52:03;;;;;;;;;;;;;;;20.37;48.65;97338.05;607535;229;64993;-65
2023/10/16 14:54:32;;;;;;;;;;;;;;;20.38;49.59;97345.02;609212;229;64765;-65
2023/10/16 14:57:01;;;;;;;;;;;;;;;20.39;48.91;97342.07;605380;229;65127;-64